sensor_id;sensor_type;location;lat;lon;timestamp;P1;durP1;ratioP1;P2;durP2;ratioP2
84638;SDS011;74869;51.924;5.712;2024-01-30T00:02:20;16.08;;;10.13;;
84638;SDS011;74869;51.924;5.712;2024-01-30T00:04:46;14.88;;;10.30;;
84638;SDS011;74869;51.924;5.712;2024-01-30T00:07:12;16.73;;;10.05;;
84638;SDS011;74869;51.924;5.712;2024-01-30T00:09:38;16.40;;;10.20;;
84638;SDS011;74869;51.924;5.712;2024-01-30T00:12:04;14.13;;;9.82;;
84638;SDS011;74869;51.924;5.712;2024-01-30T00:14:31;16.15;;;9.73;;
84638;SDS011;74869;51.924;5.712;2024-01-30T00:16:56;16.45;;;10.40;;
84638;SDS011;74869;51.924;5.712;2024-01-30T00:19:22;15.85;;;10.43;;
84638;SDS011;74869;51.924;5.712;2024-01-30T00:21:47;18.75;;;10.93;;
84638;SDS011;74869;51.924;5.712;2024-01-30T00:24:12;15.45;;;9.40;;
84638;SDS011;74869;51.924;5.712;2024-01-30T00:26:38;17.23;;;10.83;;
84638;SDS011;74869;51.924;5.712;2024-01-30T00:29:03;16.63;;;10.17;;
84638;SDS011;74869;51.924;5.712;2024-01-30T00:31:28;15.60;;;11.38;;
84638;SDS011;74869;51.924;5.712;2024-01-30T00:33:54;16.33;;;9.65;;
84638;SDS011;74869;51.924;5.712;2024-01-30T00:36:19;16.10;;;10.63;;
84638;SDS011;74869;51.924;5.712;2024-01-30T00:38:45;18.57;;;10.87;;
84638;SDS011;74869;51.924;5.712;2024-01-30T00:41:10;17.30;;;10.50;;
84638;SDS011;74869;51.924;5.712;2024-01-30T00:43:36;16.70;;;10.30;;
84638;SDS011;74869;51.924;5.712;2024-01-30T00:46:01;15.02;;;9.73;;
84638;SDS011;74869;51.924;5.712;2024-01-30T00:48:27;16.13;;;10.27;;
84638;SDS011;74869;51.924;5.712;2024-01-30T00:50:52;17.43;;;11.10;;
84638;SDS011;74869;51.924;5.712;2024-01-30T00:53:17;18.53;;;9.70;;
84638;SDS011;74869;51.924;5.712;2024-01-30T00:55:43;15.07;;;9.77;;
84638;SDS011;74869;51.924;5.712;2024-01-30T00:58:08;16.23;;;10.63;;
84638;SDS011;74869;51.924;5.712;2024-01-30T01:00:34;15.57;;;10.30;;
84638;SDS011;74869;51.924;5.712;2024-01-30T01:02:59;17.67;;;10.50;;
84638;SDS011;74869;51.924;5.712;2024-01-30T01:05:24;14.70;;;8.93;;
84638;SDS011;74869;51.924;5.712;2024-01-30T01:07:53;15.85;;;9.73;;
84638;SDS011;74869;51.924;5.712;2024-01-30T01:10:18;20.95;;;11.02;;
84638;SDS011;74869;51.924;5.712;2024-01-30T01:12:44;17.45;;;10.27;;
84638;SDS011;74869;51.924;5.712;2024-01-30T01:15:10;16.75;;;10.70;;
84638;SDS011;74869;51.924;5.712;2024-01-30T01:17:36;18.40;;;10.05;;
84638;SDS011;74869;51.924;5.712;2024-01-30T01:20:04;18.15;;;10.43;;
84638;SDS011;74869;51.924;5.712;2024-01-30T01:22:31;18.23;;;10.60;;
84638;SDS011;74869;51.924;5.712;2024-01-30T01:24:57;19.58;;;11.15;;
84638;SDS011;74869;51.924;5.712;2024-01-30T01:27:23;19.55;;;11.45;;
84638;SDS011;74869;51.924;5.712;2024-01-30T01:29:49;17.33;;;9.98;;
84638;SDS011;74869;51.924;5.712;2024-01-30T01:32:15;17.70;;;10.80;;
84638;SDS011;74869;51.924;5.712;2024-01-30T01:34:41;17.75;;;10.93;;
84638;SDS011;74869;51.924;5.712;2024-01-30T01:37:06;18.83;;;10.60;;
84638;SDS011;74869;51.924;5.712;2024-01-30T01:39:32;18.75;;;10.95;;
84638;SDS011;74869;51.924;5.712;2024-01-30T01:41:57;20.52;;;11.85;;
84638;SDS011;74869;51.924;5.712;2024-01-30T01:44:24;17.27;;;10.85;;
84638;SDS011;74869;51.924;5.712;2024-01-30T01:46:49;18.58;;;11.20;;
84638;SDS011;74869;51.924;5.712;2024-01-30T01:49:16;16.83;;;11.15;;
84638;SDS011;74869;51.924;5.712;2024-01-30T01:51:42;17.13;;;11.10;;
84638;SDS011;74869;51.924;5.712;2024-01-30T01:54:09;18.40;;;10.80;;
84638;SDS011;74869;51.924;5.712;2024-01-30T01:56:35;16.98;;;10.50;;
84638;SDS011;74869;51.924;5.712;2024-01-30T01:59:06;19.45;;;11.27;;
84638;SDS011;74869;51.924;5.712;2024-01-30T02:01:33;16.92;;;9.95;;
84638;SDS011;74869;51.924;5.712;2024-01-30T02:04:00;18.98;;;11.43;;
84638;SDS011;74869;51.924;5.712;2024-01-30T02:06:26;20.60;;;11.23;;
84638;SDS011;74869;51.924;5.712;2024-01-30T02:08:52;15.07;;;10.35;;
84638;SDS011;74869;51.924;5.712;2024-01-30T02:11:17;18.20;;;10.93;;
84638;SDS011;74869;51.924;5.712;2024-01-30T02:13:43;19.77;;;10.95;;
84638;SDS011;74869;51.924;5.712;2024-01-30T02:16:10;16.90;;;10.73;;
84638;SDS011;74869;51.924;5.712;2024-01-30T02:18:35;19.88;;;11.90;;
84638;SDS011;74869;51.924;5.712;2024-01-30T02:21:07;16.80;;;11.05;;
84638;SDS011;74869;51.924;5.712;2024-01-30T02:23:33;18.48;;;10.75;;
84638;SDS011;74869;51.924;5.712;2024-01-30T02:25:59;18.70;;;10.98;;
84638;SDS011;74869;51.924;5.712;2024-01-30T02:28:25;17.20;;;10.70;;
84638;SDS011;74869;51.924;5.712;2024-01-30T02:30:50;16.88;;;10.68;;
84638;SDS011;74869;51.924;5.712;2024-01-30T02:33:16;15.82;;;10.38;;
84638;SDS011;74869;51.924;5.712;2024-01-30T02:35:41;16.80;;;10.43;;
84638;SDS011;74869;51.924;5.712;2024-01-30T02:38:07;18.20;;;10.90;;
84638;SDS011;74869;51.924;5.712;2024-01-30T02:40:32;18.20;;;10.67;;
84638;SDS011;74869;51.924;5.712;2024-01-30T02:42:58;17.95;;;10.73;;
84638;SDS011;74869;51.924;5.712;2024-01-30T02:45:25;19.33;;;11.30;;
84638;SDS011;74869;51.924;5.712;2024-01-30T02:47:50;16.40;;;10.52;;
84638;SDS011;74869;51.924;5.712;2024-01-30T02:50:17;17.38;;;10.95;;
84638;SDS011;74869;51.924;5.712;2024-01-30T02:52:42;15.00;;;10.27;;
84638;SDS011;74869;51.924;5.712;2024-01-30T02:55:11;16.42;;;10.88;;
84638;SDS011;74869;51.924;5.712;2024-01-30T02:57:37;17.23;;;11.57;;
84638;SDS011;74869;51.924;5.712;2024-01-30T03:00:02;14.98;;;10.05;;
84638;SDS011;74869;51.924;5.712;2024-01-30T03:02:30;15.93;;;9.98;;
84638;SDS011;74869;51.924;5.712;2024-01-30T03:04:56;14.45;;;9.13;;
84638;SDS011;74869;51.924;5.712;2024-01-30T03:07:22;17.13;;;10.20;;
84638;SDS011;74869;51.924;5.712;2024-01-30T03:09:47;16.00;;;10.43;;
84638;SDS011;74869;51.924;5.712;2024-01-30T03:12:13;15.48;;;10.23;;
84638;SDS011;74869;51.924;5.712;2024-01-30T03:14:38;15.65;;;10.60;;
84638;SDS011;74869;51.924;5.712;2024-01-30T03:17:04;17.73;;;10.82;;
84638;SDS011;74869;51.924;5.712;2024-01-30T03:19:29;17.05;;;10.25;;
84638;SDS011;74869;51.924;5.712;2024-01-30T03:21:54;16.73;;;10.48;;
84638;SDS011;74869;51.924;5.712;2024-01-30T03:24:20;14.20;;;9.27;;
84638;SDS011;74869;51.924;5.712;2024-01-30T03:26:45;17.08;;;10.57;;
84638;SDS011;74869;51.924;5.712;2024-01-30T03:29:11;20.48;;;10.95;;
84638;SDS011;74869;51.924;5.712;2024-01-30T03:31:36;16.67;;;10.80;;
84638;SDS011;74869;51.924;5.712;2024-01-30T03:34:02;19.23;;;10.95;;
84638;SDS011;74869;51.924;5.712;2024-01-30T03:36:27;16.95;;;10.48;;
84638;SDS011;74869;51.924;5.712;2024-01-30T03:38:53;16.60;;;11.00;;
84638;SDS011;74869;51.924;5.712;2024-01-30T03:41:18;15.45;;;9.60;;
84638;SDS011;74869;51.924;5.712;2024-01-30T03:43:44;19.20;;;11.15;;
84638;SDS011;74869;51.924;5.712;2024-01-30T03:46:09;17.37;;;10.47;;
84638;SDS011;74869;51.924;5.712;2024-01-30T03:48:37;16.40;;;11.15;;
84638;SDS011;74869;51.924;5.712;2024-01-30T03:51:02;18.05;;;10.82;;
84638;SDS011;74869;51.924;5.712;2024-01-30T03:53:28;16.75;;;10.65;;
84638;SDS011;74869;51.924;5.712;2024-01-30T03:55:53;18.07;;;10.23;;
84638;SDS011;74869;51.924;5.712;2024-01-30T03:58:18;17.50;;;10.57;;
84638;SDS011;74869;51.924;5.712;2024-01-30T04:00:43;19.67;;;10.57;;
84638;SDS011;74869;51.924;5.712;2024-01-30T04:03:09;17.38;;;10.57;;
84638;SDS011;74869;51.924;5.712;2024-01-30T04:05:35;17.85;;;10.45;;
84638;SDS011;74869;51.924;5.712;2024-01-30T04:08:00;19.27;;;10.00;;
84638;SDS011;74869;51.924;5.712;2024-01-30T04:10:25;16.88;;;10.93;;
84638;SDS011;74869;51.924;5.712;2024-01-30T04:12:51;16.05;;;8.70;;
84638;SDS011;74869;51.924;5.712;2024-01-30T04:15:19;16.27;;;10.25;;
84638;SDS011;74869;51.924;5.712;2024-01-30T04:17:45;15.13;;;9.98;;
84638;SDS011;74869;51.924;5.712;2024-01-30T04:20:14;18.03;;;10.37;;
84638;SDS011;74869;51.924;5.712;2024-01-30T04:22:42;16.45;;;10.25;;
84638;SDS011;74869;51.924;5.712;2024-01-30T04:25:08;17.08;;;10.25;;
84638;SDS011;74869;51.924;5.712;2024-01-30T04:27:33;16.70;;;10.60;;
84638;SDS011;74869;51.924;5.712;2024-01-30T04:29:59;16.05;;;10.40;;
84638;SDS011;74869;51.924;5.712;2024-01-30T04:32:24;15.82;;;10.60;;
84638;SDS011;74869;51.924;5.712;2024-01-30T04:34:50;17.25;;;10.43;;
84638;SDS011;74869;51.924;5.712;2024-01-30T04:37:15;15.50;;;10.23;;
84638;SDS011;74869;51.924;5.712;2024-01-30T04:39:41;16.05;;;10.40;;
84638;SDS011;74869;51.924;5.712;2024-01-30T04:42:06;14.48;;;9.55;;
84638;SDS011;74869;51.924;5.712;2024-01-30T04:44:31;17.03;;;10.23;;
84638;SDS011;74869;51.924;5.712;2024-01-30T04:46:57;18.07;;;10.17;;
84638;SDS011;74869;51.924;5.712;2024-01-30T04:49:24;17.05;;;10.75;;
84638;SDS011;74869;51.924;5.712;2024-01-30T04:51:49;16.33;;;9.70;;
84638;SDS011;74869;51.924;5.712;2024-01-30T04:54:14;14.33;;;9.83;;
84638;SDS011;74869;51.924;5.712;2024-01-30T04:56:39;15.30;;;9.87;;
84638;SDS011;74869;51.924;5.712;2024-01-30T04:59:05;15.40;;;10.23;;
84638;SDS011;74869;51.924;5.712;2024-01-30T05:01:30;17.27;;;10.10;;
84638;SDS011;74869;51.924;5.712;2024-01-30T05:03:55;15.57;;;9.83;;
84638;SDS011;74869;51.924;5.712;2024-01-30T05:06:25;16.73;;;10.45;;
84638;SDS011;74869;51.924;5.712;2024-01-30T05:08:51;14.70;;;9.98;;
84638;SDS011;74869;51.924;5.712;2024-01-30T05:11:17;15.77;;;9.52;;
84638;SDS011;74869;51.924;5.712;2024-01-30T05:13:42;17.17;;;9.87;;
84638;SDS011;74869;51.924;5.712;2024-01-30T05:16:07;21.00;;;10.77;;
84638;SDS011;74869;51.924;5.712;2024-01-30T05:18:33;14.80;;;9.20;;
84638;SDS011;74869;51.924;5.712;2024-01-30T05:20:58;16.25;;;9.45;;
84638;SDS011;74869;51.924;5.712;2024-01-30T05:23:24;14.88;;;8.93;;
84638;SDS011;74869;51.924;5.712;2024-01-30T05:25:49;16.30;;;9.37;;
84638;SDS011;74869;51.924;5.712;2024-01-30T05:28:14;14.20;;;9.43;;
84638;SDS011;74869;51.924;5.712;2024-01-30T05:30:41;15.17;;;9.17;;
84638;SDS011;74869;51.924;5.712;2024-01-30T05:33:06;13.98;;;8.35;;
84638;SDS011;74869;51.924;5.712;2024-01-30T05:35:31;13.02;;;9.02;;
84638;SDS011;74869;51.924;5.712;2024-01-30T05:37:57;15.93;;;9.23;;
84638;SDS011;74869;51.924;5.712;2024-01-30T05:40:22;13.60;;;8.37;;
84638;SDS011;74869;51.924;5.712;2024-01-30T05:42:47;14.63;;;9.07;;
84638;SDS011;74869;51.924;5.712;2024-01-30T05:45:13;15.15;;;8.68;;
84638;SDS011;74869;51.924;5.712;2024-01-30T05:47:38;13.03;;;8.10;;
84638;SDS011;74869;51.924;5.712;2024-01-30T05:50:04;17.05;;;10.13;;
84638;SDS011;74869;51.924;5.712;2024-01-30T05:52:30;13.20;;;8.70;;
84638;SDS011;74869;51.924;5.712;2024-01-30T05:54:55;13.67;;;8.73;;
84638;SDS011;74869;51.924;5.712;2024-01-30T05:57:22;14.05;;;8.63;;
84638;SDS011;74869;51.924;5.712;2024-01-30T05:59:47;17.60;;;9.30;;
84638;SDS011;74869;51.924;5.712;2024-01-30T06:02:13;12.95;;;8.63;;
84638;SDS011;74869;51.924;5.712;2024-01-30T06:04:38;15.23;;;8.75;;
84638;SDS011;74869;51.924;5.712;2024-01-30T06:07:04;13.75;;;8.07;;
84638;SDS011;74869;51.924;5.712;2024-01-30T06:09:31;19.50;;;8.73;;
84638;SDS011;74869;51.924;5.712;2024-01-30T06:11:56;14.90;;;8.52;;
84638;SDS011;74869;51.924;5.712;2024-01-30T06:14:22;12.32;;;7.90;;
84638;SDS011;74869;51.924;5.712;2024-01-30T06:16:47;16.63;;;8.73;;
84638;SDS011;74869;51.924;5.712;2024-01-30T06:19:12;13.33;;;8.03;;
84638;SDS011;74869;51.924;5.712;2024-01-30T06:21:38;13.50;;;8.27;;
84638;SDS011;74869;51.924;5.712;2024-01-30T06:24:03;13.25;;;8.57;;
84638;SDS011;74869;51.924;5.712;2024-01-30T06:26:29;14.77;;;8.13;;
84638;SDS011;74869;51.924;5.712;2024-01-30T06:28:56;12.05;;;7.70;;
84638;SDS011;74869;51.924;5.712;2024-01-30T06:31:21;13.47;;;8.67;;
84638;SDS011;74869;51.924;5.712;2024-01-30T06:33:47;17.63;;;8.25;;
84638;SDS011;74869;51.924;5.712;2024-01-30T06:36:12;11.00;;;7.97;;
84638;SDS011;74869;51.924;5.712;2024-01-30T06:38:38;11.27;;;8.03;;
84638;SDS011;74869;51.924;5.712;2024-01-30T06:41:03;12.17;;;7.83;;
84638;SDS011;74869;51.924;5.712;2024-01-30T06:43:28;12.90;;;7.85;;
84638;SDS011;74869;51.924;5.712;2024-01-30T06:45:54;11.77;;;7.85;;
84638;SDS011;74869;51.924;5.712;2024-01-30T06:48:19;10.73;;;7.77;;
84638;SDS011;74869;51.924;5.712;2024-01-30T06:50:46;13.20;;;7.30;;
84638;SDS011;74869;51.924;5.712;2024-01-30T06:53:12;12.70;;;7.68;;
84638;SDS011;74869;51.924;5.712;2024-01-30T06:55:39;14.00;;;7.53;;
84638;SDS011;74869;51.924;5.712;2024-01-30T06:58:04;10.93;;;7.72;;
84638;SDS011;74869;51.924;5.712;2024-01-30T07:00:30;11.33;;;7.13;;
84638;SDS011;74869;51.924;5.712;2024-01-30T07:02:55;12.45;;;7.68;;
84638;SDS011;74869;51.924;5.712;2024-01-30T07:05:21;12.65;;;7.75;;
84638;SDS011;74869;51.924;5.712;2024-01-30T07:07:47;12.95;;;8.45;;
84638;SDS011;74869;51.924;5.712;2024-01-30T07:10:12;11.70;;;7.38;;
84638;SDS011;74869;51.924;5.712;2024-01-30T07:12:37;10.57;;;7.57;;
84638;SDS011;74869;51.924;5.712;2024-01-30T07:15:03;18.67;;;8.97;;
84638;SDS011;74869;51.924;5.712;2024-01-30T07:17:29;15.25;;;8.27;;
84638;SDS011;74869;51.924;5.712;2024-01-30T07:19:54;13.32;;;7.20;;
84638;SDS011;74869;51.924;5.712;2024-01-30T07:22:20;12.07;;;7.80;;
84638;SDS011;74869;51.924;5.712;2024-01-30T07:24:45;13.80;;;7.97;;
84638;SDS011;74869;51.924;5.712;2024-01-30T07:27:13;10.65;;;7.45;;
84638;SDS011;74869;51.924;5.712;2024-01-30T07:29:39;10.65;;;6.90;;
84638;SDS011;74869;51.924;5.712;2024-01-30T07:32:05;10.93;;;7.40;;
84638;SDS011;74869;51.924;5.712;2024-01-30T07:34:31;13.37;;;8.20;;
84638;SDS011;74869;51.924;5.712;2024-01-30T07:36:56;14.00;;;7.87;;
84638;SDS011;74869;51.924;5.712;2024-01-30T07:39:21;12.18;;;7.75;;
84638;SDS011;74869;51.924;5.712;2024-01-30T07:41:47;15.77;;;8.48;;
84638;SDS011;74869;51.924;5.712;2024-01-30T07:44:12;11.57;;;7.33;;
84638;SDS011;74869;51.924;5.712;2024-01-30T07:46:37;12.70;;;7.32;;
84638;SDS011;74869;51.924;5.712;2024-01-30T07:49:03;13.23;;;7.40;;
84638;SDS011;74869;51.924;5.712;2024-01-30T07:51:28;12.63;;;7.80;;
84638;SDS011;74869;51.924;5.712;2024-01-30T07:53:56;12.82;;;7.00;;
84638;SDS011;74869;51.924;5.712;2024-01-30T07:56:22;10.88;;;7.53;;
84638;SDS011;74869;51.924;5.712;2024-01-30T07:58:47;15.20;;;7.70;;
84638;SDS011;74869;51.924;5.712;2024-01-30T08:01:14;13.97;;;8.10;;
84638;SDS011;74869;51.924;5.712;2024-01-30T08:03:40;11.50;;;8.10;;
84638;SDS011;74869;51.924;5.712;2024-01-30T08:06:06;13.70;;;8.32;;
84638;SDS011;74869;51.924;5.712;2024-01-30T08:08:32;11.68;;;7.65;;
84638;SDS011;74869;51.924;5.712;2024-01-30T08:10:57;14.35;;;8.05;;
84638;SDS011;74869;51.924;5.712;2024-01-30T08:13:22;13.63;;;8.30;;
84638;SDS011;74869;51.924;5.712;2024-01-30T08:15:48;11.00;;;7.30;;
84638;SDS011;74869;51.924;5.712;2024-01-30T08:18:13;11.87;;;7.53;;
84638;SDS011;74869;51.924;5.712;2024-01-30T08:20:38;11.40;;;7.40;;
84638;SDS011;74869;51.924;5.712;2024-01-30T08:23:04;12.93;;;7.67;;
84638;SDS011;74869;51.924;5.712;2024-01-30T08:25:30;11.40;;;7.45;;
84638;SDS011;74869;51.924;5.712;2024-01-30T08:27:55;13.50;;;8.13;;
84638;SDS011;74869;51.924;5.712;2024-01-30T08:30:22;12.50;;;7.85;;
84638;SDS011;74869;51.924;5.712;2024-01-30T08:32:47;10.77;;;7.63;;
84638;SDS011;74869;51.924;5.712;2024-01-30T08:35:12;11.18;;;7.65;;
84638;SDS011;74869;51.924;5.712;2024-01-30T08:37:40;13.88;;;8.13;;
84638;SDS011;74869;51.924;5.712;2024-01-30T08:40:05;12.88;;;8.20;;
84638;SDS011;74869;51.924;5.712;2024-01-30T08:42:33;11.63;;;7.63;;
84638;SDS011;74869;51.924;5.712;2024-01-30T08:44:58;12.15;;;7.18;;
84638;SDS011;74869;51.924;5.712;2024-01-30T08:47:24;12.37;;;7.27;;
84638;SDS011;74869;51.924;5.712;2024-01-30T08:49:50;10.73;;;7.93;;
84638;SDS011;74869;51.924;5.712;2024-01-30T08:52:15;11.32;;;7.30;;
84638;SDS011;74869;51.924;5.712;2024-01-30T08:54:41;10.50;;;6.88;;
84638;SDS011;74869;51.924;5.712;2024-01-30T08:57:06;13.17;;;7.40;;
84638;SDS011;74869;51.924;5.712;2024-01-30T08:59:31;13.03;;;7.83;;
84638;SDS011;74869;51.924;5.712;2024-01-30T09:01:57;11.13;;;7.03;;
84638;SDS011;74869;51.924;5.712;2024-01-30T09:04:24;12.10;;;7.43;;
84638;SDS011;74869;51.924;5.712;2024-01-30T09:06:50;10.18;;;7.38;;
84638;SDS011;74869;51.924;5.712;2024-01-30T09:09:17;12.32;;;7.47;;
84638;SDS011;74869;51.924;5.712;2024-01-30T09:11:42;12.35;;;7.47;;
84638;SDS011;74869;51.924;5.712;2024-01-30T09:14:08;12.38;;;7.47;;
84638;SDS011;74869;51.924;5.712;2024-01-30T09:16:33;14.30;;;7.45;;
84638;SDS011;74869;51.924;5.712;2024-01-30T09:18:59;12.43;;;7.13;;
84638;SDS011;74869;51.924;5.712;2024-01-30T09:21:24;12.00;;;7.43;;
84638;SDS011;74869;51.924;5.712;2024-01-30T09:23:49;11.33;;;8.13;;
84638;SDS011;74869;51.924;5.712;2024-01-30T09:26:15;10.20;;;7.35;;
84638;SDS011;74869;51.924;5.712;2024-01-30T09:28:40;13.53;;;7.67;;
84638;SDS011;74869;51.924;5.712;2024-01-30T09:31:10;11.18;;;7.32;;
84638;SDS011;74869;51.924;5.712;2024-01-30T09:33:36;14.00;;;8.18;;
84638;SDS011;74869;51.924;5.712;2024-01-30T09:36:01;19.37;;;7.97;;
84638;SDS011;74869;51.924;5.712;2024-01-30T09:38:26;11.70;;;7.57;;
84638;SDS011;74869;51.924;5.712;2024-01-30T09:40:53;12.25;;;7.43;;
84638;SDS011;74869;51.924;5.712;2024-01-30T09:43:23;12.48;;;7.95;;
84638;SDS011;74869;51.924;5.712;2024-01-30T09:45:49;13.18;;;7.95;;
84638;SDS011;74869;51.924;5.712;2024-01-30T09:48:15;13.27;;;7.75;;
84638;SDS011;74869;51.924;5.712;2024-01-30T09:50:40;10.27;;;7.57;;
84638;SDS011;74869;51.924;5.712;2024-01-30T09:53:06;12.52;;;8.10;;
84638;SDS011;74869;51.924;5.712;2024-01-30T09:55:34;14.10;;;8.25;;
84638;SDS011;74869;51.924;5.712;2024-01-30T09:58:01;13.48;;;7.07;;
84638;SDS011;74869;51.924;5.712;2024-01-30T10:00:26;13.35;;;7.25;;
84638;SDS011;74869;51.924;5.712;2024-01-30T10:02:52;14.32;;;7.15;;
84638;SDS011;74869;51.924;5.712;2024-01-30T10:05:18;14.10;;;8.02;;
84638;SDS011;74869;51.924;5.712;2024-01-30T10:07:53;13.23;;;7.72;;
84638;SDS011;74869;51.924;5.712;2024-01-30T10:10:23;9.82;;;7.22;;
84638;SDS011;74869;51.924;5.712;2024-01-30T10:12:49;18.25;;;8.48;;
84638;SDS011;74869;51.924;5.712;2024-01-30T10:15:14;12.80;;;7.30;;
84638;SDS011;74869;51.924;5.712;2024-01-30T10:17:40;12.23;;;8.13;;
84638;SDS011;74869;51.924;5.712;2024-01-30T10:20:05;16.40;;;7.75;;
84638;SDS011;74869;51.924;5.712;2024-01-30T10:22:32;11.77;;;8.05;;
84638;SDS011;74869;51.924;5.712;2024-01-30T10:24:58;12.98;;;7.63;;
84638;SDS011;74869;51.924;5.712;2024-01-30T10:27:25;11.05;;;7.65;;
84638;SDS011;74869;51.924;5.712;2024-01-30T10:29:51;9.10;;;7.07;;
84638;SDS011;74869;51.924;5.712;2024-01-30T10:32:17;10.90;;;7.43;;
84638;SDS011;74869;51.924;5.712;2024-01-30T10:34:42;13.30;;;7.88;;
84638;SDS011;74869;51.924;5.712;2024-01-30T10:37:09;13.25;;;7.43;;
84638;SDS011;74869;51.924;5.712;2024-01-30T10:39:41;10.23;;;7.20;;
84638;SDS011;74869;51.924;5.712;2024-01-30T10:42:11;11.77;;;8.82;;
84638;SDS011;74869;51.924;5.712;2024-01-30T10:44:50;10.10;;;7.22;;
84638;SDS011;74869;51.924;5.712;2024-01-30T10:47:18;11.23;;;7.63;;
84638;SDS011;74869;51.924;5.712;2024-01-30T10:49:55;10.70;;;8.02;;
84638;SDS011;74869;51.924;5.712;2024-01-30T10:52:22;13.82;;;7.43;;
84638;SDS011;74869;51.924;5.712;2024-01-30T10:54:50;13.45;;;8.82;;
84638;SDS011;74869;51.924;5.712;2024-01-30T10:57:17;12.63;;;7.90;;
84638;SDS011;74869;51.924;5.712;2024-01-30T10:59:43;11.38;;;8.10;;
84638;SDS011;74869;51.924;5.712;2024-01-30T11:02:09;14.68;;;9.05;;
84638;SDS011;74869;51.924;5.712;2024-01-30T11:04:40;11.80;;;8.50;;
84638;SDS011;74869;51.924;5.712;2024-01-30T11:07:15;13.82;;;7.72;;
84638;SDS011;74869;51.924;5.712;2024-01-30T11:09:47;14.07;;;8.23;;
84638;SDS011;74869;51.924;5.712;2024-01-30T11:12:14;12.57;;;7.57;;
84638;SDS011;74869;51.924;5.712;2024-01-30T11:14:39;11.88;;;8.32;;
84638;SDS011;74869;51.924;5.712;2024-01-30T11:17:09;15.50;;;8.30;;
84638;SDS011;74869;51.924;5.712;2024-01-30T11:19:37;11.85;;;7.57;;
84638;SDS011;74869;51.924;5.712;2024-01-30T11:22:02;13.07;;;7.75;;
84638;SDS011;74869;51.924;5.712;2024-01-30T11:24:29;12.15;;;7.80;;
84638;SDS011;74869;51.924;5.712;2024-01-30T11:26:55;11.80;;;7.30;;
84638;SDS011;74869;51.924;5.712;2024-01-30T11:29:27;11.43;;;7.40;;
84638;SDS011;74869;51.924;5.712;2024-01-30T11:31:53;12.48;;;7.68;;
84638;SDS011;74869;51.924;5.712;2024-01-30T11:34:22;12.82;;;7.65;;
84638;SDS011;74869;51.924;5.712;2024-01-30T11:36:51;14.10;;;7.57;;
84638;SDS011;74869;51.924;5.712;2024-01-30T11:39:23;13.65;;;8.48;;
84638;SDS011;74869;51.924;5.712;2024-01-30T11:41:50;12.02;;;7.93;;
84638;SDS011;74869;51.924;5.712;2024-01-30T11:44:19;9.13;;;6.50;;
84638;SDS011;74869;51.924;5.712;2024-01-30T11:49:14;10.98;;;7.03;;
84638;SDS011;74869;51.924;5.712;2024-01-30T11:51:40;13.75;;;7.72;;
84638;SDS011;74869;51.924;5.712;2024-01-30T11:54:07;8.82;;;6.82;;
84638;SDS011;74869;51.924;5.712;2024-01-30T11:56:32;9.27;;;6.57;;
84638;SDS011;74869;51.924;5.712;2024-01-30T11:58:58;12.15;;;7.75;;
84638;SDS011;74869;51.924;5.712;2024-01-30T12:01:25;10.15;;;7.28;;
84638;SDS011;74869;51.924;5.712;2024-01-30T12:03:51;11.68;;;8.05;;
84638;SDS011;74869;51.924;5.712;2024-01-30T12:06:16;12.07;;;8.35;;
84638;SDS011;74869;51.924;5.712;2024-01-30T12:08:41;9.43;;;6.90;;
84638;SDS011;74869;51.924;5.712;2024-01-30T12:11:07;12.13;;;7.53;;
84638;SDS011;74869;51.924;5.712;2024-01-30T12:13:34;11.57;;;7.35;;
84638;SDS011;74869;51.924;5.712;2024-01-30T12:16:02;9.05;;;6.50;;
84638;SDS011;74869;51.924;5.712;2024-01-30T12:18:29;9.93;;;6.35;;
84638;SDS011;74869;51.924;5.712;2024-01-30T12:21:00;9.00;;;5.88;;
84638;SDS011;74869;51.924;5.712;2024-01-30T12:23:28;9.48;;;5.95;;
84638;SDS011;74869;51.924;5.712;2024-01-30T12:25:54;9.85;;;5.32;;
84638;SDS011;74869;51.924;5.712;2024-01-30T12:28:21;5.93;;;3.92;;
84638;SDS011;74869;51.924;5.712;2024-01-30T12:30:46;4.78;;;3.25;;
84638;SDS011;74869;51.924;5.712;2024-01-30T12:33:18;6.55;;;2.85;;
84638;SDS011;74869;51.924;5.712;2024-01-30T12:35:46;8.52;;;3.10;;
84638;SDS011;74869;51.924;5.712;2024-01-30T12:38:16;4.03;;;2.60;;
84638;SDS011;74869;51.924;5.712;2024-01-30T12:40:41;5.97;;;2.50;;
84638;SDS011;74869;51.924;5.712;2024-01-30T12:43:06;5.32;;;2.40;;
84638;SDS011;74869;51.924;5.712;2024-01-30T12:45:32;5.80;;;2.63;;
84638;SDS011;74869;51.924;5.712;2024-01-30T12:47:57;7.38;;;2.63;;
84638;SDS011;74869;51.924;5.712;2024-01-30T12:50:23;5.95;;;2.70;;
84638;SDS011;74869;51.924;5.712;2024-01-30T12:52:49;9.02;;;2.83;;
84638;SDS011;74869;51.924;5.712;2024-01-30T12:55:14;6.85;;;2.42;;
84638;SDS011;74869;51.924;5.712;2024-01-30T12:57:41;6.32;;;2.15;;
84638;SDS011;74869;51.924;5.712;2024-01-30T13:00:07;3.95;;;1.88;;
84638;SDS011;74869;51.924;5.712;2024-01-30T13:02:36;2.72;;;1.67;;
84638;SDS011;74869;51.924;5.712;2024-01-30T13:05:05;6.97;;;1.83;;
84638;SDS011;74869;51.924;5.712;2024-01-30T13:07:31;5.72;;;1.67;;
84638;SDS011;74869;51.924;5.712;2024-01-30T13:09:56;4.03;;;1.10;;
84638;SDS011;74869;51.924;5.712;2024-01-30T13:12:27;1.50;;;0.73;;
84638;SDS011;74869;51.924;5.712;2024-01-30T13:14:53;0.63;;;0.57;;
84638;SDS011;74869;51.924;5.712;2024-01-30T13:17:19;1.83;;;0.82;;
84638;SDS011;74869;51.924;5.712;2024-01-30T13:19:44;4.93;;;0.90;;
84638;SDS011;74869;51.924;5.712;2024-01-30T13:22:09;2.07;;;0.80;;
84638;SDS011;74869;51.924;5.712;2024-01-30T13:24:35;3.10;;;0.70;;
84638;SDS011;74869;51.924;5.712;2024-01-30T13:27:00;1.02;;;0.70;;
84638;SDS011;74869;51.924;5.712;2024-01-30T13:29:25;2.85;;;0.80;;
84638;SDS011;74869;51.924;5.712;2024-01-30T13:31:51;4.13;;;1.00;;
84638;SDS011;74869;51.924;5.712;2024-01-30T13:34:16;3.50;;;1.20;;
84638;SDS011;74869;51.924;5.712;2024-01-30T13:36:42;2.35;;;1.58;;
84638;SDS011;74869;51.924;5.712;2024-01-30T13:39:09;4.88;;;2.20;;
84638;SDS011;74869;51.924;5.712;2024-01-30T13:41:35;6.35;;;2.53;;
84638;SDS011;74869;51.924;5.712;2024-01-30T13:44:01;9.68;;;3.05;;
84638;SDS011;74869;51.924;5.712;2024-01-30T13:46:28;6.40;;;3.00;;
84638;SDS011;74869;51.924;5.712;2024-01-30T13:48:54;6.95;;;2.70;;
84638;SDS011;74869;51.924;5.712;2024-01-30T13:51:19;13.77;;;3.77;;
84638;SDS011;74869;51.924;5.712;2024-01-30T13:53:44;8.37;;;3.43;;
84638;SDS011;74869;51.924;5.712;2024-01-30T13:56:10;6.97;;;4.23;;
84638;SDS011;74869;51.924;5.712;2024-01-30T13:58:35;9.55;;;3.90;;
84638;SDS011;74869;51.924;5.712;2024-01-30T14:01:01;7.90;;;4.13;;
84638;SDS011;74869;51.924;5.712;2024-01-30T14:03:27;6.85;;;3.78;;
84638;SDS011;74869;51.924;5.712;2024-01-30T14:05:54;11.00;;;3.97;;
84638;SDS011;74869;51.924;5.712;2024-01-30T14:08:19;10.00;;;4.85;;
84638;SDS011;74869;51.924;5.712;2024-01-30T14:10:46;6.22;;;4.70;;
84638;SDS011;74869;51.924;5.712;2024-01-30T14:13:12;8.50;;;4.78;;
84638;SDS011;74869;51.924;5.712;2024-01-30T14:15:39;7.97;;;4.20;;
84638;SDS011;74869;51.924;5.712;2024-01-30T14:18:04;10.00;;;3.60;;
84638;SDS011;74869;51.924;5.712;2024-01-30T14:20:30;7.75;;;3.20;;
84638;SDS011;74869;51.924;5.712;2024-01-30T14:22:56;6.18;;;3.35;;
84638;SDS011;74869;51.924;5.712;2024-01-30T14:25:21;7.37;;;2.97;;
84638;SDS011;74869;51.924;5.712;2024-01-30T14:27:47;6.53;;;3.25;;
84638;SDS011;74869;51.924;5.712;2024-01-30T14:30:12;6.57;;;3.97;;